createdAt,value
2023-04-02T00:00:20.552Z,98092.16
2023-04-02T00:03:24.140Z,98097.03
2023-04-02T00:06:40.617Z,98108.97
2023-04-02T00:09:45.771Z,98102.00
2023-04-02T00:13:01.929Z,98097.50
2023-04-02T00:16:08.443Z,98103.22
2023-04-02T00:19:19.148Z,98102.50
2023-04-02T00:22:26.596Z,98108.44
2023-04-02T00:25:35.665Z,98103.84
2023-04-02T00:28:39.269Z,98115.38
2023-04-02T00:31:46.682Z,98114.50
2023-04-02T00:34:50.807Z,98121.34
2023-04-02T00:37:54.957Z,98121.56
2023-04-02T00:41:03.211Z,98123.25
2023-04-02T00:44:07.496Z,98125.59
2023-04-02T00:47:17.255Z,98124.13
2023-04-02T00:50:29.041Z,98124.50
2023-04-02T00:53:33.652Z,98123.75
2023-04-02T00:56:43.767Z,98121.22
2023-04-02T00:59:56.262Z,98125.56
2023-04-02T01:03:30.248Z,98128.00
2023-04-02T01:06:37.780Z,98121.97
2023-04-02T01:10:03.738Z,98130.81
2023-04-02T01:13:19.704Z,98131.56
2023-04-02T01:16:37.098Z,98134.50
2023-04-02T01:20:17.217Z,98133.91
2023-04-02T01:23:29.773Z,98146.03
2023-04-02T01:26:54.658Z,98149.41
2023-04-02T01:30:03.363Z,98150.63
2023-04-02T01:33:07.497Z,98157.88
2023-04-02T01:36:17.789Z,98161.53
2023-04-02T01:39:33.306Z,98159.34
2023-04-02T01:42:43.041Z,98164.56
2023-04-02T01:45:48.053Z,98164.84
2023-04-02T01:48:52.023Z,98169.03
2023-04-02T01:51:57.752Z,98173.53
2023-04-02T01:55:04.766Z,98172.50
2023-04-02T01:58:11.460Z,98178.78
2023-04-02T02:01:20.909Z,98170.59
2023-04-02T02:04:27.483Z,98183.66
2023-04-02T02:07:31.401Z,98177.44
2023-04-02T02:10:37.792Z,98190.41
2023-04-02T02:13:48.118Z,98190.75
2023-04-02T02:16:56.876Z,98185.59
2023-04-02T02:20:06.832Z,98199.34
2023-04-02T02:23:13.908Z,98201.91
2023-04-02T02:26:18.522Z,98205.38
2023-04-02T02:29:24.842Z,98209.34
2023-04-02T02:32:32.849Z,98212.41
2023-04-02T02:35:42.477Z,98216.47
2023-04-02T02:38:55.276Z,98226.75
2023-04-02T02:42:11.683Z,98229.28
2023-04-02T02:45:21.001Z,98236.72
2023-04-02T02:48:35.844Z,98228.94
2023-04-02T02:51:45.940Z,98240.97
2023-04-02T02:54:57.976Z,98247.31
2023-04-02T02:58:08.928Z,98248.44
2023-04-02T03:01:21.717Z,98248.66
2023-04-02T03:04:30.982Z,98260.31
2023-04-02T03:07:37.389Z,98265.50
2023-04-02T03:10:48.498Z,98260.72
2023-04-02T03:13:56.844Z,98257.06
2023-04-02T03:17:04.827Z,98269.50
2023-04-02T03:20:17.314Z,98274.22
2023-04-02T03:23:27.159Z,98279.16
2023-04-02T03:26:38.771Z,98272.91
2023-04-02T03:29:49.590Z,98278.41
2023-04-02T03:32:59.539Z,98281.22
2023-04-02T03:36:15.155Z,98286.13
2023-04-02T03:39:25.416Z,98294.03
2023-04-02T03:42:38.872Z,98296.44
2023-04-02T03:45:45.792Z,98307.03
2023-04-02T03:48:53.177Z,98308.50
2023-04-02T03:52:02.314Z,98311.03
2023-04-02T03:55:16.128Z,98322.09
2023-04-02T03:58:25.431Z,98329.34
2023-04-02T04:01:34.772Z,98334.38
2023-04-02T04:04:43.932Z,98340.63
2023-04-02T04:07:53.146Z,98356.38
2023-04-02T04:11:00.515Z,98362.19
2023-04-02T04:14:11.317Z,98362.00
2023-04-02T04:17:24.882Z,98375.38
2023-04-02T04:20:35.879Z,98377.16
2023-04-02T04:23:49.927Z,98380.63
2023-04-02T04:27:04.068Z,98382.84
2023-04-02T04:30:21.074Z,98392.94
2023-04-02T04:33:29.222Z,98392.66
2023-04-02T04:36:54.092Z,98403.78
2023-04-02T04:40:07.765Z,98405.31
2023-04-02T04:43:18.979Z,98408.25
2023-04-02T04:46:29.253Z,98406.88
2023-04-02T04:49:39.973Z,98411.75
2023-04-02T04:52:44.567Z,98418.25
2023-04-02T04:55:54.408Z,98419.94
2023-04-02T04:59:04.541Z,98426.75
2023-04-02T05:02:13.542Z,98431.41
2023-04-02T05:05:21.289Z,98433.78
2023-04-02T05:08:32.230Z,98434.81
2023-04-02T05:11:41.498Z,98448.50
2023-04-02T05:14:52.401Z,98451.28
2023-04-02T05:18:12.913Z,98456.69
2023-04-02T05:21:22.783Z,98460.22
2023-04-02T05:24:45.326Z,98464.88
2023-04-02T05:27:58.812Z,98480.34
2023-04-02T05:31:07.832Z,98479.25
2023-04-02T05:34:13.799Z,98478.00
2023-04-02T05:37:21.140Z,98493.38
2023-04-02T05:40:31.242Z,98493.81
2023-04-02T05:43:40.691Z,98494.84
2023-04-02T05:46:50.698Z,98498.06
2023-04-02T05:50:12.443Z,98510.59
2023-04-02T05:53:26.745Z,98509.84
2023-04-02T05:56:36.160Z,98510.41
2023-04-02T05:59:47.940Z,98516.69
2023-04-02T06:03:00.385Z,98524.56
2023-04-02T06:06:14.788Z,98534.13
2023-04-02T06:09:25.805Z,98535.63
2023-04-02T06:12:36.512Z,98533.09
2023-04-02T06:15:44.492Z,98542.31
2023-04-02T06:19:00.819Z,98548.00
2023-04-02T06:22:12.960Z,98556.47
2023-04-02T06:25:22.286Z,98560.16
2023-04-02T06:28:32.595Z,98571.69
2023-04-02T06:31:42.078Z,98578.28
2023-04-02T06:34:48.998Z,98579.63
2023-04-02T06:37:58.326Z,98583.88
2023-04-02T06:41:14.535Z,98595.44
2023-04-02T06:44:44.329Z,98592.56
2023-04-02T06:48:04.331Z,98597.94
2023-04-02T06:51:24.283Z,98599.34
2023-04-02T06:54:28.092Z,98611.34
2023-04-02T06:57:36.377Z,98608.63
2023-04-02T07:00:45.142Z,98618.13
2023-04-02T07:03:56.311Z,98622.03
2023-04-02T07:07:05.373Z,98625.53
2023-04-02T07:10:13.446Z,98631.69
2023-04-02T07:13:18.146Z,98633.75
2023-04-02T07:16:25.527Z,98635.56
2023-04-02T07:19:31.053Z,98645.06
2023-04-02T07:22:36.259Z,98659.69
2023-04-02T07:25:40.175Z,98660.13
2023-04-02T07:28:44.331Z,98664.00
2023-04-02T07:31:48.305Z,98672.88
2023-04-02T07:34:53.337Z,98678.91
2023-04-02T07:37:57.126Z,98685.63
2023-04-02T07:41:07.080Z,98689.25
2023-04-02T07:44:12.197Z,98694.09
2023-04-02T07:47:15.746Z,98697.47
2023-04-02T07:50:21.108Z,98702.19
2023-04-02T07:53:31.183Z,98698.84
2023-04-02T07:56:34.608Z,98704.81
2023-04-02T07:59:38.210Z,98709.72
2023-04-02T08:02:42.634Z,98714.97
2023-04-02T08:05:53.339Z,98721.72
2023-04-02T08:08:57.668Z,98733.41
2023-04-02T08:12:01.048Z,98727.88
2023-04-02T08:15:06.027Z,98733.25
2023-04-02T08:18:09.588Z,98745.25
2023-04-02T08:21:16.501Z,98746.25
2023-04-02T08:24:20.593Z,98747.97
2023-04-02T08:27:24.637Z,98751.53
2023-04-02T08:30:28.220Z,98757.84
2023-04-02T08:33:31.800Z,98761.91
2023-04-02T08:36:39.337Z,98756.13
2023-04-02T08:39:42.921Z,98769.13
2023-04-02T08:42:58.692Z,98758.88
2023-04-02T08:46:10.924Z,98770.16
2023-04-02T08:49:17.527Z,98764.38
2023-04-02T08:52:26.035Z,98773.84
2023-04-02T08:55:37.314Z,98782.13
2023-04-02T08:58:43.877Z,98785.97
2023-04-02T09:01:53.542Z,98789.38
2023-04-02T09:04:58.902Z,98795.53
2023-04-02T09:08:06.351Z,98802.66
2023-04-02T09:11:17.350Z,98803.97
2023-04-02T09:14:25.306Z,98808.88
2023-04-02T09:17:34.788Z,98816.03
2023-04-02T09:20:45.167Z,98812.72
2023-04-02T09:23:51.509Z,98824.16
2023-04-02T09:26:55.155Z,98831.50
2023-04-02T09:30:04.165Z,98837.97
2023-04-02T09:33:09.344Z,98846.69
2023-04-02T09:36:27.498Z,98849.38
2023-04-02T09:39:32.642Z,98852.72
2023-04-02T09:42:38.309Z,98857.34
2023-04-02T09:45:43.802Z,98861.69
2023-04-02T09:48:54.354Z,98866.19
2023-04-02T09:52:20.484Z,98873.94
2023-04-02T09:55:28.929Z,98877.47
2023-04-02T09:58:32.381Z,98888.50
2023-04-02T10:01:37.643Z,98893.84
2023-04-02T10:04:45.522Z,98887.97
2023-04-02T10:07:50.691Z,98895.22
2023-04-02T10:10:58.840Z,98909.19
2023-04-02T10:14:05.985Z,98913.53
2023-04-02T10:17:15.807Z,98906.13
2023-04-02T10:20:28.493Z,98908.13
2023-04-02T10:23:34.205Z,98906.97
2023-04-02T10:26:52.643Z,98917.78
2023-04-02T10:30:02.923Z,98917.69
2023-04-02T10:33:13.422Z,98920.44
2023-04-02T10:36:31.762Z,98929.59
2023-04-02T10:39:40.614Z,98928.84
2023-04-02T10:42:58.266Z,98922.56
2023-04-02T10:46:09.169Z,98930.13
2023-04-02T10:49:23.468Z,98930.78
2023-04-02T10:52:31.021Z,98933.53
2023-04-02T10:55:43.424Z,98939.94
2023-04-02T10:58:57.570Z,98940.03
2023-04-02T11:02:08.926Z,98947.66
2023-04-02T11:05:21.097Z,98949.44
2023-04-02T11:08:27.731Z,98954.44
2023-04-02T11:11:36.962Z,98964.28
2023-04-02T11:14:42.078Z,98965.03
2023-04-02T11:17:46.221Z,98972.91
2023-04-02T11:21:05.630Z,98982.50
2023-04-02T11:24:25.703Z,98987.84
2023-04-02T11:27:31.415Z,98984.28
2023-04-02T11:30:36.616Z,98991.28
2023-04-02T11:33:45.400Z,98981.50
2023-04-02T11:37:04.672Z,98996.78
2023-04-02T11:40:45.183Z,98999.09
2023-04-02T11:44:02.298Z,98997.97
2023-04-02T11:47:24.509Z,99002.03
2023-04-02T11:50:33.342Z,99007.38
2023-04-02T11:53:38.262Z,99011.94
2023-04-02T11:56:49.183Z,99014.66
2023-04-02T12:00:12.949Z,99020.44
2023-04-02T12:03:39.064Z,99029.28
2023-04-02T12:06:57.276Z,99030.59
2023-04-02T12:10:04.807Z,99035.47
2023-04-02T12:13:19.769Z,99039.00
2023-04-02T12:16:31.404Z,99034.63
2023-04-02T12:19:36.767Z,99040.41
2023-04-02T12:22:47.384Z,99036.94
2023-04-02T12:25:59.714Z,99042.88
2023-04-02T12:29:25.541Z,99049.06
2023-04-02T12:32:31.637Z,99038.06
2023-04-02T12:35:38.115Z,99046.28
2023-04-02T12:38:47.124Z,99050.69
2023-04-02T12:41:50.663Z,99053.56
2023-04-02T12:44:54.154Z,99053.13
2023-04-02T12:47:58.446Z,99057.84
2023-04-02T12:51:07.131Z,99061.25
2023-04-02T12:54:17.582Z,99060.91
2023-04-02T12:57:23.197Z,99068.50
2023-04-02T13:00:33.095Z,99064.81
2023-04-02T13:03:37.084Z,99068.34
2023-04-02T13:06:52.193Z,99076.75
2023-04-02T13:09:58.634Z,99079.63
2023-04-02T13:13:04.850Z,99091.38
2023-04-02T13:16:25.352Z,99096.84
2023-04-02T13:19:32.078Z,99093.66
2023-04-02T13:22:37.380Z,99098.63
2023-04-02T13:25:41.198Z,99104.16
2023-04-02T13:28:45.343Z,99099.88
2023-04-02T13:31:48.980Z,99113.75
2023-04-02T13:34:52.722Z,99108.44
2023-04-02T13:37:57.870Z,99111.75
2023-04-02T13:41:01.261Z,99121.94
2023-04-02T13:44:05.294Z,99119.53
2023-04-02T13:47:10.925Z,99125.94
2023-04-02T13:50:18.638Z,99131.31
2023-04-02T13:53:30.982Z,99135.75
2023-04-02T13:56:37.165Z,99143.91
2023-04-02T13:59:40.670Z,99154.19
2023-04-02T14:02:49.116Z,99146.16
2023-04-02T14:06:02.039Z,99162.13
2023-04-02T14:09:16.126Z,99155.75
2023-04-02T14:12:30.144Z,99156.03
2023-04-02T14:15:45.866Z,99157.59
2023-04-02T14:19:11.316Z,99160.41
2023-04-02T14:22:28.379Z,99158.63
2023-04-02T14:25:42.596Z,99167.09
2023-04-02T14:28:57.601Z,99166.69
2023-04-02T14:32:07.033Z,99171.34
2023-04-02T14:35:17.464Z,99171.56
2023-04-02T14:38:26.652Z,99174.91
2023-04-02T14:41:37.940Z,99176.25
2023-04-02T14:44:46.894Z,99177.59
2023-04-02T14:47:57.265Z,99171.50
2023-04-02T14:51:06.452Z,99180.94
2023-04-02T14:54:20.083Z,99185.03
2023-04-02T14:57:30.946Z,99177.66
2023-04-02T15:00:38.853Z,99178.69
2023-04-02T15:03:47.103Z,99189.31
2023-04-02T15:06:53.946Z,99178.25
2023-04-02T15:10:06.317Z,99188.47
2023-04-02T15:13:20.216Z,99190.31
2023-04-02T15:16:27.885Z,99204.66
2023-04-02T15:19:32.136Z,99197.19
2023-04-02T15:22:44.072Z,99203.06
2023-04-02T15:25:50.478Z,99213.78
2023-04-02T15:29:06.327Z,99223.03
2023-04-02T15:32:26.940Z,99215.38
2023-04-02T15:35:38.969Z,99231.38
2023-04-02T15:38:46.309Z,99243.53
2023-04-02T15:42:06.831Z,99234.53
2023-04-02T15:45:39.327Z,99240.56
2023-04-02T15:49:10.325Z,99264.38
2023-04-02T15:52:22.774Z,99259.50
2023-04-02T15:55:34.711Z,99263.03
2023-04-02T15:58:56.413Z,99268.34
2023-04-02T16:02:19.387Z,99270.69
2023-04-02T16:05:34.009Z,99266.44
2023-04-02T16:08:58.955Z,99272.88
2023-04-02T16:12:15.917Z,99277.00
2023-04-02T16:15:25.004Z,99275.75
2023-04-02T16:18:39.965Z,99272.16
2023-04-02T16:21:50.477Z,99288.03
2023-04-02T16:25:01.825Z,99289.75
2023-04-02T16:28:14.565Z,99295.78
2023-04-02T16:31:25.491Z,99287.31
2023-04-02T16:34:45.882Z,99297.03
2023-04-02T16:37:54.116Z,99301.28
2023-04-02T16:41:09.118Z,99296.09
2023-04-02T16:44:24.805Z,99303.88
2023-04-02T16:47:45.490Z,99309.44
2023-04-02T16:50:58.981Z,99308.31
2023-04-02T16:54:11.515Z,99312.16
2023-04-02T16:57:26.547Z,99319.16
2023-04-02T17:00:39.314Z,99323.56
2023-04-02T17:04:01.733Z,99333.94
2023-04-02T17:07:17.115Z,99331.34
2023-04-02T17:10:27.815Z,99340.94
2023-04-02T17:13:40.640Z,99350.53
2023-04-02T17:16:45.879Z,99347.31
2023-04-02T17:19:54.506Z,99355.50
2023-04-02T17:23:00.392Z,99353.81
2023-04-02T17:26:08.867Z,99356.53
2023-04-02T17:29:26.969Z,99365.09
2023-04-02T17:32:32.780Z,99375.53
2023-04-02T17:35:46.375Z,99378.22
2023-04-02T17:39:01.359Z,99387.03
2023-04-02T17:42:15.587Z,99388.09
2023-04-02T17:45:24.676Z,99394.28
2023-04-02T17:48:37.497Z,99394.53
2023-04-02T17:51:46.122Z,99397.97
2023-04-02T17:54:59.206Z,99412.47
2023-04-02T17:58:11.282Z,99411.81
2023-04-02T18:01:24.368Z,99417.31
2023-04-02T18:04:39.538Z,99413.94
2023-04-02T18:07:53.583Z,99427.84
2023-04-02T18:11:09.084Z,99438.97
2023-04-02T18:14:29.787Z,99440.28
2023-04-02T18:17:42.988Z,99435.66
2023-04-02T18:20:57.580Z,99438.78
2023-04-02T18:24:16.313Z,99448.34
2023-04-02T18:27:43.754Z,99453.38
2023-04-02T18:30:55.425Z,99455.03
2023-04-02T18:34:21.228Z,99460.28
2023-04-02T18:37:33.501Z,99464.31
2023-04-02T18:40:50.409Z,99473.34
2023-04-02T18:44:13.235Z,99474.47
2023-04-02T18:47:24.496Z,99477.22
2023-04-02T18:50:33.265Z,99479.84
2023-04-02T18:53:38.060Z,99485.94
2023-04-02T18:56:42.794Z,99483.69
2023-04-02T18:59:55.836Z,99490.97
2023-04-02T19:03:05.128Z,99493.38
2023-04-02T19:06:13.840Z,99500.84
2023-04-02T19:09:23.660Z,99501.69
2023-04-02T19:12:27.063Z,99500.47
2023-04-02T19:15:41.449Z,99504.50
2023-04-02T19:18:57.270Z,99513.06
2023-04-02T19:22:29.821Z,99516.59
2023-04-02T19:25:51.306Z,99519.28
2023-04-02T19:29:06.990Z,99525.22
2023-04-02T19:32:20.693Z,99529.72
2023-04-02T19:35:29.733Z,99532.59
2023-04-02T19:38:51.211Z,99529.44
2023-04-02T19:41:58.316Z,99529.81
2023-04-02T19:45:03.138Z,99533.28
2023-04-02T19:48:20.264Z,99538.78
2023-04-02T19:51:23.914Z,99535.81
2023-04-02T19:54:27.497Z,99544.59
2023-04-02T19:57:31.294Z,99548.16
2023-04-02T20:00:35.260Z,99546.25
2023-04-02T20:03:40.263Z,99546.41
2023-04-02T20:06:46.181Z,99551.38
2023-04-02T20:09:49.731Z,99541.81
2023-04-02T20:12:53.212Z,99540.84
2023-04-02T20:16:00.280Z,99540.78
2023-04-02T20:19:05.211Z,99548.81
2023-04-02T20:22:09.035Z,99553.25
2023-04-02T20:25:12.423Z,99560.28
2023-04-02T20:28:15.970Z,99562.69
2023-04-02T20:31:20.237Z,99559.19
2023-04-02T20:34:25.165Z,99567.41
2023-04-02T20:37:29.177Z,99569.84
2023-04-02T20:40:32.723Z,99569.09
2023-04-02T20:43:37.587Z,99571.75
2023-04-02T20:46:41.833Z,99579.63
2023-04-02T20:49:46.738Z,99577.88
2023-04-02T20:52:50.416Z,99576.00
2023-04-02T20:55:54.014Z,99576.09
2023-04-02T20:58:57.453Z,99579.69
2023-04-02T21:02:00.878Z,99584.13
2023-04-02T21:05:06.467Z,99584.06
2023-04-02T21:08:10.670Z,99591.03
2023-04-02T21:11:14.781Z,99589.38
2023-04-02T21:14:18.976Z,99591.22
2023-04-02T21:17:22.481Z,99590.38
2023-04-02T21:20:27.774Z,99594.72
2023-04-02T21:23:31.633Z,99591.31
2023-04-02T21:26:36.726Z,99594.72
2023-04-02T21:29:40.202Z,99592.97
2023-04-02T21:32:43.764Z,99601.75
2023-04-02T21:35:49.094Z,99599.25
2023-04-02T21:38:55.337Z,99600.13
2023-04-02T21:41:58.968Z,99601.81
2023-04-02T21:45:02.599Z,99609.00
2023-04-02T21:48:08.980Z,99610.69
2023-04-02T21:51:15.615Z,99614.16
2023-04-02T21:54:19.437Z,99615.88
2023-04-02T21:57:22.939Z,99613.34
2023-04-02T22:00:27.640Z,99624.84
2023-04-02T22:03:32.043Z,99618.63
2023-04-02T22:06:40.547Z,99626.56
2023-04-02T22:09:44.392Z,99619.72
2023-04-02T22:12:47.978Z,99626.59
2023-04-02T22:15:51.362Z,99621.31
2023-04-02T22:18:56.827Z,99630.13
2023-04-02T22:22:01.609Z,99630.16
2023-04-02T22:25:06.160Z,99640.75
2023-04-02T22:28:09.740Z,99632.97
2023-04-02T22:31:15.696Z,99638.94
2023-04-02T22:34:19.260Z,99638.06
2023-04-02T22:37:24.203Z,99642.47
2023-04-02T22:40:27.804Z,99639.97
2023-04-02T22:43:31.370Z,99646.72
2023-04-02T22:46:35.410Z,99649.34
2023-04-02T22:49:39.104Z,99643.38
2023-04-02T22:52:44.674Z,99640.94
2023-04-02T22:55:48.165Z,99647.03
2023-04-02T22:58:51.719Z,99650.56
2023-04-02T23:01:55.556Z,99652.44
2023-04-02T23:04:59.248Z,99660.22
2023-04-02T23:08:04.712Z,99658.56
2023-04-02T23:11:10.373Z,99660.31
2023-04-02T23:14:13.899Z,99658.56
2023-04-02T23:17:17.382Z,99661.91
2023-04-02T23:20:21.079Z,99662.88
2023-04-02T23:23:27.770Z,99667.53
2023-04-02T23:26:32.447Z,99666.41
2023-04-02T23:29:35.855Z,99667.50
2023-04-02T23:32:40.671Z,99672.84
2023-04-02T23:35:46.741Z,99672.84
2023-04-02T23:38:55.280Z,99670.06
2023-04-02T23:41:59.363Z,99664.84
2023-04-02T23:45:02.810Z,99665.84
2023-04-02T23:48:07.027Z,99665.00
2023-04-02T23:51:10.480Z,99673.06
2023-04-02T23:54:16.756Z,99676.47
2023-04-02T23:57:20.254Z,99682.59
